sensor_id;sensor_type;location;lat;lon;timestamp;P1;durP1;ratioP1;P2;durP2;ratioP2
84303;SDS011;74469;52.520;16.998;2024-02-21T00:04:20;9.10;;;4.00;;
84303;SDS011;74469;52.520;16.998;2024-02-21T00:09:23;17.80;;;3.70;;
84303;SDS011;74469;52.520;16.998;2024-02-21T00:14:25;6.90;;;3.00;;
84303;SDS011;74469;52.520;16.998;2024-02-21T00:19:28;12.00;;;2.90;;
84303;SDS011;74469;52.520;16.998;2024-02-21T00:24:31;6.90;;;2.70;;
84303;SDS011;74469;52.520;16.998;2024-02-21T00:29:34;8.10;;;2.20;;
84303;SDS011;74469;52.520;16.998;2024-02-21T00:34:37;7.50;;;2.50;;
84303;SDS011;74469;52.520;16.998;2024-02-21T00:39:39;7.10;;;2.40;;
84303;SDS011;74469;52.520;16.998;2024-02-21T00:44:42;9.60;;;2.20;;
84303;SDS011;74469;52.520;16.998;2024-02-21T00:49:44;11.70;;;3.30;;
84303;SDS011;74469;52.520;16.998;2024-02-21T00:54:47;12.20;;;3.00;;
84303;SDS011;74469;52.520;16.998;2024-02-21T00:59:51;9.10;;;3.90;;
84303;SDS011;74469;52.520;16.998;2024-02-21T01:04:54;9.10;;;2.20;;
84303;SDS011;74469;52.520;16.998;2024-02-21T01:09:57;8.00;;;2.20;;
84303;SDS011;74469;52.520;16.998;2024-02-21T01:14:59;11.20;;;3.00;;
84303;SDS011;74469;52.520;16.998;2024-02-21T01:20:02;16.00;;;4.40;;
84303;SDS011;74469;52.520;16.998;2024-02-21T01:25:08;10.50;;;3.20;;
84303;SDS011;74469;52.520;16.998;2024-02-21T01:30:11;9.70;;;2.90;;
84303;SDS011;74469;52.520;16.998;2024-02-21T01:35:14;8.30;;;3.70;;
84303;SDS011;74469;52.520;16.998;2024-02-21T01:40:17;7.90;;;3.30;;
84303;SDS011;74469;52.520;16.998;2024-02-21T01:45:19;10.40;;;3.30;;
84303;SDS011;74469;52.520;16.998;2024-02-21T01:50:22;12.60;;;4.20;;
84303;SDS011;74469;52.520;16.998;2024-02-21T01:55:25;10.10;;;2.70;;
84303;SDS011;74469;52.520;16.998;2024-02-21T02:00:28;16.20;;;4.40;;
84303;SDS011;74469;52.520;16.998;2024-02-21T02:05:31;19.70;;;3.70;;
84303;SDS011;74469;52.520;16.998;2024-02-21T02:10:35;9.40;;;3.30;;
84303;SDS011;74469;52.520;16.998;2024-02-21T02:20:44;14.90;;;3.30;;
84303;SDS011;74469;52.520;16.998;2024-02-21T02:25:47;11.70;;;3.60;;
84303;SDS011;74469;52.520;16.998;2024-02-21T02:30:51;11.90;;;3.60;;
84303;SDS011;74469;52.520;16.998;2024-02-21T02:35:54;14.70;;;3.60;;
84303;SDS011;74469;52.520;16.998;2024-02-21T02:40:57;13.10;;;4.20;;
84303;SDS011;74469;52.520;16.998;2024-02-21T02:45:59;15.90;;;3.90;;
84303;SDS011;74469;52.520;16.998;2024-02-21T02:51:02;16.70;;;4.60;;
84303;SDS011;74469;52.520;16.998;2024-02-21T02:56:05;10.90;;;3.80;;
84303;SDS011;74469;52.520;16.998;2024-02-21T03:01:08;10.50;;;3.50;;
84303;SDS011;74469;52.520;16.998;2024-02-21T03:06:10;16.80;;;3.60;;
84303;SDS011;74469;52.520;16.998;2024-02-21T03:11:13;18.40;;;4.30;;
84303;SDS011;74469;52.520;16.998;2024-02-21T03:16:17;9.70;;;3.70;;
84303;SDS011;74469;52.520;16.998;2024-02-21T03:21:19;16.70;;;4.40;;
84303;SDS011;74469;52.520;16.998;2024-02-21T03:26:22;7.10;;;4.20;;
84303;SDS011;74469;52.520;16.998;2024-02-21T03:31:25;13.30;;;5.20;;
84303;SDS011;74469;52.520;16.998;2024-02-21T03:36:27;16.90;;;4.00;;
84303;SDS011;74469;52.520;16.998;2024-02-21T03:41:30;10.80;;;4.40;;
84303;SDS011;74469;52.520;16.998;2024-02-21T03:46:33;12.10;;;3.30;;
84303;SDS011;74469;52.520;16.998;2024-02-21T03:51:35;10.00;;;5.10;;
84303;SDS011;74469;52.520;16.998;2024-02-21T03:56:38;12.00;;;3.90;;
84303;SDS011;74469;52.520;16.998;2024-02-21T04:01:44;13.70;;;3.90;;
84303;SDS011;74469;52.520;16.998;2024-02-21T04:06:47;17.90;;;5.10;;
84303;SDS011;74469;52.520;16.998;2024-02-21T04:11:51;16.30;;;4.00;;
84303;SDS011;74469;52.520;16.998;2024-02-21T04:16:54;10.10;;;3.50;;
84303;SDS011;74469;52.520;16.998;2024-02-21T04:21:57;14.60;;;4.30;;
84303;SDS011;74469;52.520;16.998;2024-02-21T04:26:59;12.50;;;4.90;;
84303;SDS011;74469;52.520;16.998;2024-02-21T04:32:02;10.20;;;3.60;;
84303;SDS011;74469;52.520;16.998;2024-02-21T04:37:05;9.10;;;4.40;;
84303;SDS011;74469;52.520;16.998;2024-02-21T04:42:08;9.10;;;2.50;;
84303;SDS011;74469;52.520;16.998;2024-02-21T04:47:10;14.20;;;4.90;;
84303;SDS011;74469;52.520;16.998;2024-02-21T04:52:14;13.70;;;4.30;;
84303;SDS011;74469;52.520;16.998;2024-02-21T06:03:26;9.30;;;3.40;;
84303;SDS011;74469;52.520;16.998;2024-02-21T06:08:30;15.30;;;4.50;;
84303;SDS011;74469;52.520;16.998;2024-02-21T06:13:37;7.90;;;2.80;;
84303;SDS011;74469;52.520;16.998;2024-02-21T06:18:40;9.60;;;3.60;;
84303;SDS011;74469;52.520;16.998;2024-02-21T06:23:43;10.00;;;4.40;;
84303;SDS011;74469;52.520;16.998;2024-02-21T06:28:46;9.80;;;3.20;;
84303;SDS011;74469;52.520;16.998;2024-02-21T06:33:49;15.30;;;5.60;;
84303;SDS011;74469;52.520;16.998;2024-02-21T06:38:52;11.90;;;3.50;;
84303;SDS011;74469;52.520;16.998;2024-02-21T06:43:54;12.80;;;4.20;;
84303;SDS011;74469;52.520;16.998;2024-02-21T06:48:58;14.30;;;4.10;;
84303;SDS011;74469;52.520;16.998;2024-02-21T06:54:00;6.70;;;4.00;;
84303;SDS011;74469;52.520;16.998;2024-02-21T06:59:03;13.80;;;4.60;;
84303;SDS011;74469;52.520;16.998;2024-02-21T07:04:06;6.50;;;3.80;;
84303;SDS011;74469;52.520;16.998;2024-02-21T07:09:09;11.40;;;3.70;;
84303;SDS011;74469;52.520;16.998;2024-02-21T07:14:13;7.70;;;4.00;;
84303;SDS011;74469;52.520;16.998;2024-02-21T07:19:16;11.90;;;4.90;;
84303;SDS011;74469;52.520;16.998;2024-02-21T07:24:19;17.20;;;4.80;;
84303;SDS011;74469;52.520;16.998;2024-02-21T07:29:22;17.60;;;5.20;;
84303;SDS011;74469;52.520;16.998;2024-02-21T07:34:24;11.60;;;4.70;;
84303;SDS011;74469;52.520;16.998;2024-02-21T07:39:27;13.50;;;5.50;;
84303;SDS011;74469;52.520;16.998;2024-02-21T07:44:30;12.90;;;3.90;;
84303;SDS011;74469;52.520;16.998;2024-02-21T07:49:41;18.90;;;6.20;;
84303;SDS011;74469;52.520;16.998;2024-02-21T07:54:46;7.30;;;3.70;;
84303;SDS011;74469;52.520;16.998;2024-02-21T08:05:02;17.50;;;6.20;;
84303;SDS011;74469;52.520;16.998;2024-02-21T08:10:06;13.00;;;5.10;;
84303;SDS011;74469;52.520;16.998;2024-02-21T08:15:10;9.70;;;3.90;;
84303;SDS011;74469;52.520;16.998;2024-02-21T08:20:14;12.40;;;5.00;;
84303;SDS011;74469;52.520;16.998;2024-02-21T08:25:17;14.50;;;5.20;;
84303;SDS011;74469;52.520;16.998;2024-02-21T08:30:20;13.50;;;4.90;;
84303;SDS011;74469;52.520;16.998;2024-02-21T08:35:23;7.60;;;4.10;;
84303;SDS011;74469;52.520;16.998;2024-02-21T08:40:26;14.70;;;4.30;;
84303;SDS011;74469;52.520;16.998;2024-02-21T08:45:29;11.90;;;4.70;;
84303;SDS011;74469;52.520;16.998;2024-02-21T08:50:31;11.40;;;5.60;;
84303;SDS011;74469;52.520;16.998;2024-02-21T08:55:34;12.70;;;5.00;;
84303;SDS011;74469;52.520;16.998;2024-02-21T09:00:38;9.00;;;4.40;;
84303;SDS011;74469;52.520;16.998;2024-02-21T09:05:40;11.90;;;4.80;;
84303;SDS011;74469;52.520;16.998;2024-02-21T09:10:43;11.30;;;5.50;;
84303;SDS011;74469;52.520;16.998;2024-02-21T09:15:47;11.00;;;4.80;;
84303;SDS011;74469;52.520;16.998;2024-02-21T09:20:50;10.40;;;5.80;;
84303;SDS011;74469;52.520;16.998;2024-02-21T09:25:53;12.20;;;5.70;;
84303;SDS011;74469;52.520;16.998;2024-02-21T09:30:57;10.80;;;4.80;;
84303;SDS011;74469;52.520;16.998;2024-02-21T09:36:00;10.20;;;5.30;;
84303;SDS011;74469;52.520;16.998;2024-02-21T09:46:13;12.60;;;6.70;;
84303;SDS011;74469;52.520;16.998;2024-02-21T09:51:24;12.10;;;5.70;;
84303;SDS011;74469;52.520;16.998;2024-02-21T09:56:27;8.90;;;4.60;;
84303;SDS011;74469;52.520;16.998;2024-02-21T10:01:30;15.60;;;6.50;;
84303;SDS011;74469;52.520;16.998;2024-02-21T10:06:34;12.90;;;5.00;;
84303;SDS011;74469;52.520;16.998;2024-02-21T10:11:39;12.10;;;5.30;;
84303;SDS011;74469;52.520;16.998;2024-02-21T10:16:42;12.90;;;6.40;;
84303;SDS011;74469;52.520;16.998;2024-02-21T10:21:57;9.60;;;5.50;;
84303;SDS011;74469;52.520;16.998;2024-02-21T10:27:06;13.70;;;7.50;;
84303;SDS011;74469;52.520;16.998;2024-02-21T10:32:13;16.90;;;6.30;;
84303;SDS011;74469;52.520;16.998;2024-02-21T10:37:16;16.50;;;8.50;;
84303;SDS011;74469;52.520;16.998;2024-02-21T10:42:20;14.00;;;5.70;;
84303;SDS011;74469;52.520;16.998;2024-02-21T10:47:24;11.70;;;5.40;;
84303;SDS011;74469;52.520;16.998;2024-02-21T10:57:52;19.10;;;7.30;;
84303;SDS011;74469;52.520;16.998;2024-02-21T11:02:56;9.70;;;5.40;;
84303;SDS011;74469;52.520;16.998;2024-02-21T11:08:00;13.60;;;5.80;;
84303;SDS011;74469;52.520;16.998;2024-02-21T11:13:06;18.50;;;8.30;;
84303;SDS011;74469;52.520;16.998;2024-02-21T11:18:10;18.00;;;6.50;;
84303;SDS011;74469;52.520;16.998;2024-02-21T11:23:13;13.20;;;7.00;;
84303;SDS011;74469;52.520;16.998;2024-02-21T11:28:27;13.70;;;6.00;;
84303;SDS011;74469;52.520;16.998;2024-02-21T11:33:29;13.40;;;6.80;;
84303;SDS011;74469;52.520;16.998;2024-02-21T11:38:41;8.50;;;4.50;;
84303;SDS011;74469;52.520;16.998;2024-02-21T11:43:44;12.80;;;5.60;;
84303;SDS011;74469;52.520;16.998;2024-02-21T11:48:47;12.10;;;4.60;;
84303;SDS011;74469;52.520;16.998;2024-02-21T11:53:52;14.10;;;5.70;;
84303;SDS011;74469;52.520;16.998;2024-02-21T11:58:55;9.10;;;4.00;;
84303;SDS011;74469;52.520;16.998;2024-02-21T12:09:29;12.10;;;5.40;;
84303;SDS011;74469;52.520;16.998;2024-02-21T12:14:32;16.20;;;6.40;;
84303;SDS011;74469;52.520;16.998;2024-02-21T12:19:36;16.80;;;7.50;;
84303;SDS011;74469;52.520;16.998;2024-02-21T12:24:38;11.80;;;5.80;;
84303;SDS011;74469;52.520;16.998;2024-02-21T12:29:44;13.90;;;6.30;;
84303;SDS011;74469;52.520;16.998;2024-02-21T12:34:47;16.50;;;6.80;;
84303;SDS011;74469;52.520;16.998;2024-02-21T12:39:50;16.20;;;7.30;;
84303;SDS011;74469;52.520;16.998;2024-02-21T12:44:53;13.80;;;6.20;;
84303;SDS011;74469;52.520;16.998;2024-02-21T12:49:56;13.60;;;6.00;;
84303;SDS011;74469;52.520;16.998;2024-02-21T12:54:59;12.00;;;5.70;;
84303;SDS011;74469;52.520;16.998;2024-02-21T13:00:01;14.00;;;6.70;;
84303;SDS011;74469;52.520;16.998;2024-02-21T13:05:06;9.70;;;4.80;;
84303;SDS011;74469;52.520;16.998;2024-02-21T13:10:09;19.20;;;7.10;;
84303;SDS011;74469;52.520;16.998;2024-02-21T13:15:12;21.20;;;8.70;;
84303;SDS011;74469;52.520;16.998;2024-02-21T13:20:15;21.40;;;9.60;;
84303;SDS011;74469;52.520;16.998;2024-02-21T13:25:18;18.60;;;9.00;;
84303;SDS011;74469;52.520;16.998;2024-02-21T13:30:23;19.70;;;6.80;;
84303;SDS011;74469;52.520;16.998;2024-02-21T13:35:27;11.90;;;5.60;;
84303;SDS011;74469;52.520;16.998;2024-02-21T13:40:30;9.90;;;5.20;;
84303;SDS011;74469;52.520;16.998;2024-02-21T13:45:33;14.90;;;6.30;;
84303;SDS011;74469;52.520;16.998;2024-02-21T13:50:36;9.60;;;5.10;;
84303;SDS011;74469;52.520;16.998;2024-02-21T13:55:45;14.10;;;6.00;;
84303;SDS011;74469;52.520;16.998;2024-02-21T14:00:47;16.30;;;7.90;;
84303;SDS011;74469;52.520;16.998;2024-02-21T14:05:50;18.60;;;8.30;;
84303;SDS011;74469;52.520;16.998;2024-02-21T14:10:53;17.70;;;8.10;;
84303;SDS011;74469;52.520;16.998;2024-02-21T14:15:58;15.00;;;6.30;;
84303;SDS011;74469;52.520;16.998;2024-02-21T14:21:00;12.80;;;6.70;;
84303;SDS011;74469;52.520;16.998;2024-02-21T14:26:06;14.70;;;8.10;;
84303;SDS011;74469;52.520;16.998;2024-02-21T14:31:09;17.40;;;6.10;;
84303;SDS011;74469;52.520;16.998;2024-02-21T14:36:12;13.50;;;7.30;;
84303;SDS011;74469;52.520;16.998;2024-02-21T14:41:18;11.30;;;4.70;;
84303;SDS011;74469;52.520;16.998;2024-02-21T14:46:21;9.90;;;4.50;;
84303;SDS011;74469;52.520;16.998;2024-02-21T14:51:23;14.20;;;7.30;;
84303;SDS011;74469;52.520;16.998;2024-02-21T14:56:26;19.90;;;10.00;;
84303;SDS011;74469;52.520;16.998;2024-02-21T15:01:29;10.70;;;6.10;;
84303;SDS011;74469;52.520;16.998;2024-02-21T15:06:32;19.20;;;6.30;;
84303;SDS011;74469;52.520;16.998;2024-02-21T15:11:34;18.00;;;6.80;;
84303;SDS011;74469;52.520;16.998;2024-02-21T15:16:37;8.10;;;4.60;;
84303;SDS011;74469;52.520;16.998;2024-02-21T15:21:40;12.60;;;7.20;;
84303;SDS011;74469;52.520;16.998;2024-02-21T15:26:43;8.80;;;4.60;;
84303;SDS011;74469;52.520;16.998;2024-02-21T15:31:45;10.20;;;5.20;;
84303;SDS011;74469;52.520;16.998;2024-02-21T15:36:49;13.70;;;5.80;;
84303;SDS011;74469;52.520;16.998;2024-02-21T15:41:52;11.70;;;5.60;;
84303;SDS011;74469;52.520;16.998;2024-02-21T15:46:56;12.30;;;6.60;;
84303;SDS011;74469;52.520;16.998;2024-02-21T15:51:59;11.90;;;5.60;;
84303;SDS011;74469;52.520;16.998;2024-02-21T15:57:02;10.80;;;5.10;;
84303;SDS011;74469;52.520;16.998;2024-02-21T16:02:08;13.10;;;5.90;;
84303;SDS011;74469;52.520;16.998;2024-02-21T16:07:11;9.60;;;4.80;;
84303;SDS011;74469;52.520;16.998;2024-02-21T17:14:01;14.30;;;5.80;;
84303;SDS011;74469;52.520;16.998;2024-02-21T17:19:05;11.80;;;6.90;;
84303;SDS011;74469;52.520;16.998;2024-02-21T17:24:08;17.50;;;8.90;;
84303;SDS011;74469;52.520;16.998;2024-02-21T17:29:11;15.00;;;8.60;;
84303;SDS011;74469;52.520;16.998;2024-02-21T17:34:14;20.70;;;8.40;;
84303;SDS011;74469;52.520;16.998;2024-02-21T17:39:16;15.10;;;7.60;;
84303;SDS011;74469;52.520;16.998;2024-02-21T17:44:20;13.70;;;7.30;;
84303;SDS011;74469;52.520;16.998;2024-02-21T17:49:24;12.20;;;7.50;;
84303;SDS011;74469;52.520;16.998;2024-02-21T17:54:27;16.10;;;9.20;;
84303;SDS011;74469;52.520;16.998;2024-02-21T17:59:29;13.20;;;5.90;;
84303;SDS011;74469;52.520;16.998;2024-02-21T18:04:32;17.20;;;9.10;;
84303;SDS011;74469;52.520;16.998;2024-02-21T18:09:35;21.60;;;10.20;;
84303;SDS011;74469;52.520;16.998;2024-02-21T18:14:38;14.00;;;8.10;;
84303;SDS011;74469;52.520;16.998;2024-02-21T18:19:40;18.10;;;8.40;;
84303;SDS011;74469;52.520;16.998;2024-02-21T18:24:43;16.50;;;7.10;;
84303;SDS011;74469;52.520;16.998;2024-02-21T18:29:46;37.10;;;16.20;;
84303;SDS011;74469;52.520;16.998;2024-02-21T18:34:49;18.50;;;9.50;;
84303;SDS011;74469;52.520;16.998;2024-02-21T18:39:52;19.90;;;11.20;;
84303;SDS011;74469;52.520;16.998;2024-02-21T18:44:54;18.40;;;9.10;;
84303;SDS011;74469;52.520;16.998;2024-02-21T18:49:58;20.50;;;9.10;;
84303;SDS011;74469;52.520;16.998;2024-02-21T18:55:01;14.50;;;7.30;;
84303;SDS011;74469;52.520;16.998;2024-02-21T19:00:05;16.20;;;7.20;;
84303;SDS011;74469;52.520;16.998;2024-02-21T19:05:10;19.10;;;8.90;;
84303;SDS011;74469;52.520;16.998;2024-02-21T19:10:12;14.40;;;7.90;;
84303;SDS011;74469;52.520;16.998;2024-02-21T19:20:43;14.70;;;6.90;;
84303;SDS011;74469;52.520;16.998;2024-02-21T19:25:46;15.90;;;7.90;;
84303;SDS011;74469;52.520;16.998;2024-02-21T19:30:49;12.00;;;6.40;;
84303;SDS011;74469;52.520;16.998;2024-02-21T19:35:52;13.70;;;6.70;;
84303;SDS011;74469;52.520;16.998;2024-02-21T19:40:54;13.40;;;6.60;;
84303;SDS011;74469;52.520;16.998;2024-02-21T19:45:57;14.30;;;8.10;;
84303;SDS011;74469;52.520;16.998;2024-02-21T19:51:00;12.60;;;7.40;;
84303;SDS011;74469;52.520;16.998;2024-02-21T19:56:02;12.70;;;7.30;;
84303;SDS011;74469;52.520;16.998;2024-02-21T20:01:05;15.50;;;7.70;;
84303;SDS011;74469;52.520;16.998;2024-02-21T20:06:08;14.90;;;7.70;;
84303;SDS011;74469;52.520;16.998;2024-02-21T20:11:11;11.00;;;7.00;;
84303;SDS011;74469;52.520;16.998;2024-02-21T20:16:15;10.30;;;5.90;;
84303;SDS011;74469;52.520;16.998;2024-02-21T20:21:18;9.00;;;5.60;;
84303;SDS011;74469;52.520;16.998;2024-02-21T20:26:21;12.00;;;6.90;;
84303;SDS011;74469;52.520;16.998;2024-02-21T20:31:24;17.90;;;7.70;;
84303;SDS011;74469;52.520;16.998;2024-02-21T20:36:28;15.30;;;6.50;;
84303;SDS011;74469;52.520;16.998;2024-02-21T20:41:31;13.40;;;7.70;;
84303;SDS011;74469;52.520;16.998;2024-02-21T20:46:33;11.80;;;6.90;;
84303;SDS011;74469;52.520;16.998;2024-02-21T20:51:36;11.00;;;7.40;;
84303;SDS011;74469;52.520;16.998;2024-02-21T20:56:39;7.60;;;5.30;;
84303;SDS011;74469;52.520;16.998;2024-02-21T21:01:42;9.70;;;4.80;;
84303;SDS011;74469;52.520;16.998;2024-02-21T21:06:44;13.10;;;6.30;;
84303;SDS011;74469;52.520;16.998;2024-02-21T21:11:47;12.00;;;6.90;;
84303;SDS011;74469;52.520;16.998;2024-02-21T21:16:49;7.90;;;5.40;;
84303;SDS011;74469;52.520;16.998;2024-02-21T21:21:53;19.80;;;8.40;;
84303;SDS011;74469;52.520;16.998;2024-02-21T21:26:58;14.40;;;7.50;;
84303;SDS011;74469;52.520;16.998;2024-02-21T21:32:01;9.80;;;6.30;;
84303;SDS011;74469;52.520;16.998;2024-02-21T21:37:04;12.10;;;6.30;;
84303;SDS011;74469;52.520;16.998;2024-02-21T21:42:07;14.90;;;8.40;;
84303;SDS011;74469;52.520;16.998;2024-02-21T21:47:10;17.30;;;8.40;;
84303;SDS011;74469;52.520;16.998;2024-02-21T21:52:13;12.80;;;6.00;;
84303;SDS011;74469;52.520;16.998;2024-02-21T21:57:16;12.40;;;6.50;;
84303;SDS011;74469;52.520;16.998;2024-02-21T22:02:19;9.20;;;5.30;;
84303;SDS011;74469;52.520;16.998;2024-02-21T22:07:27;15.00;;;7.50;;
84303;SDS011;74469;52.520;16.998;2024-02-21T22:12:30;13.00;;;6.70;;
84303;SDS011;74469;52.520;16.998;2024-02-21T22:17:32;12.10;;;5.70;;
84303;SDS011;74469;52.520;16.998;2024-02-21T22:22:35;8.50;;;5.20;;
84303;SDS011;74469;52.520;16.998;2024-02-21T22:27:38;10.30;;;5.00;;
84303;SDS011;74469;52.520;16.998;2024-02-21T22:32:40;7.00;;;3.90;;
84303;SDS011;74469;52.520;16.998;2024-02-21T22:37:43;5.80;;;4.20;;
84303;SDS011;74469;52.520;16.998;2024-02-21T22:42:46;9.90;;;5.20;;
84303;SDS011;74469;52.520;16.998;2024-02-21T22:47:48;8.10;;;3.90;;
84303;SDS011;74469;52.520;16.998;2024-02-21T22:52:51;11.80;;;4.60;;
84303;SDS011;74469;52.520;16.998;2024-02-21T22:57:54;10.60;;;5.10;;
84303;SDS011;74469;52.520;16.998;2024-02-21T23:23:05;11.10;;;6.20;;
84303;SDS011;74469;52.520;16.998;2024-02-21T23:28:08;10.80;;;5.60;;
84303;SDS011;74469;52.520;16.998;2024-02-21T23:33:11;16.80;;;7.30;;
84303;SDS011;74469;52.520;16.998;2024-02-21T23:38:14;15.00;;;6.60;;
84303;SDS011;74469;52.520;16.998;2024-02-21T23:43:16;10.70;;;6.50;;
84303;SDS011;74469;52.520;16.998;2024-02-21T23:48:19;15.70;;;7.40;;
84303;SDS011;74469;52.520;16.998;2024-02-21T23:53:23;19.00;;;9.00;;
84303;SDS011;74469;52.520;16.998;2024-02-21T23:58:26;15.00;;;9.60;;
